Time;durP1;ratioP1;P1;durP2;ratioP2;P2;SDS_P1;SDS_P2;PMS_P1;PMS_P2;Temp;Humidity;BMP_temperature;BMP_pressure;BME280_temperature;BME280_humidity;BME280_pressure;Samples;Min_cycle;Max_cycle;Signal;HPM_P1;HPM_P2
2024/01/07 00:01:56;;;;;;;17.20;9.60;;;;;;;-2.81;69.23;100198.84;130964;1254;107973;-75
2024/01/07 00:05:03;;;;;;;19.80;10.80;;;;;;;-2.81;69.39;100199.36;131038;1255;106906;-75
2024/01/07 00:08:09;;;;;;;18.00;10.20;;;;;;;-2.83;69.00;100204.52;130937;1253;107573;-76
2024/01/07 00:11:15;;;;;;;18.10;10.00;;;;;;;-2.85;69.31;100204.80;131015;1255;107673;-75
2024/01/07 00:14:21;;;;;;;18.00;10.30;;;;;;;-2.92;68.82;100206.31;130990;1253;108747;-75
2024/01/07 00:17:27;;;;;;;20.40;12.20;;;;;;;-3.01;69.38;100205.52;130992;1256;108561;-75
2024/01/07 00:20:33;;;;;;;20.00;10.20;;;;;;;-3.07;69.31;100202.62;131023;1256;106348;-75
2024/01/07 00:23:38;;;;;;;17.70;9.80;;;;;;;-3.12;69.58;100206.86;130893;1253;107602;-75
2024/01/07 00:26:45;;;;;;;18.00;10.60;;;;;;;-3.12;69.75;100213.97;130877;1256;108566;-76
2024/01/07 00:29:51;;;;;;;21.40;11.30;;;;;;;-3.13;69.52;100216.98;130731;1257;106494;-75
2024/01/07 00:32:57;;;;;;;20.50;10.70;;;;;;;-3.13;69.27;100220.83;131004;1256;107002;-76
2024/01/07 00:36:02;;;;;;;21.30;12.50;;;;;;;-3.12;69.67;100224.27;130902;1256;107690;-75
2024/01/07 00:39:08;;;;;;;17.60;10.00;;;;;;;-3.12;69.25;100229.66;130764;1257;106670;-76
2024/01/07 00:42:14;;;;;;;17.30;9.20;;;;;;;-3.17;69.62;100228.30;130888;1256;107610;-75
2024/01/07 00:45:21;;;;;;;15.90;9.30;;;;;;;-3.19;69.45;100231.34;130998;1256;108667;-76
2024/01/07 00:48:27;;;;;;;16.70;9.20;;;;;;;-3.19;69.71;100230.63;130969;1256;107726;-75
2024/01/07 00:51:32;;;;;;;17.60;9.10;;;;;;;-3.19;69.50;100232.38;130940;1256;107616;-75
2024/01/07 00:54:38;;;;;;;17.60;9.50;;;;;;;-3.22;69.37;100231.99;130869;1254;108648;-75
2024/01/07 00:57:44;;;;;;;16.90;9.00;;;;;;;-3.27;69.53;100237.77;130867;1266;108641;-75
2024/01/07 01:00:50;;;;;;;18.10;9.70;;;;;;;-3.31;69.67;100236.56;130872;1255;107159;-75
2024/01/07 01:03:57;;;;;;;22.00;10.70;;;;;;;-3.28;69.36;100240.26;130731;1259;107611;-75
2024/01/07 01:07:04;;;;;;;17.70;9.20;;;;;;;-3.30;69.61;100239.80;130889;1257;107739;-75
2024/01/07 01:10:13;;;;;;;17.00;9.40;;;;;;;-3.34;69.68;100240.84;130856;1256;108670;-75
2024/01/07 01:13:19;;;;;;;39.70;23.30;;;;;;;-3.40;69.76;100240.74;130831;1257;106505;-75
2024/01/07 01:16:25;;;;;;;26.60;14.50;;;;;;;-3.45;70.04;100244.46;130906;1257;108290;-76
2024/01/07 01:19:30;;;;;;;22.50;11.40;;;;;;;-3.51;70.41;100241.04;130963;1251;108625;-74
2024/01/07 01:22:36;;;;;;;39.80;18.50;;;;;;;-3.44;69.91;100245.81;130976;1256;108592;-76
2024/01/07 01:25:42;;;;;;;44.60;22.00;;;;;;;-3.37;70.13;100245.33;130983;1257;107476;-75
2024/01/07 01:28:47;;;;;;;25.20;12.30;;;;;;;-3.32;69.78;100244.23;130861;1257;106450;-76
2024/01/07 01:31:53;;;;;;;49.00;23.80;;;;;;;-3.27;69.77;100246.30;130874;1256;106531;-75
2024/01/07 01:34:59;;;;;;;45.60;23.80;;;;;;;-3.25;69.98;100246.91;130856;1266;108717;-75
2024/01/07 01:38:05;;;;;;;26.70;13.50;;;;;;;-3.21;70.03;100244.30;130912;1253;107564;-75
2024/01/07 01:41:11;;;;;;;26.60;13.10;;;;;;;-3.24;69.74;100243.02;130899;1251;108635;-74
2024/01/07 01:44:16;;;;;;;24.90;13.40;;;;;;;-3.29;69.72;100242.07;130893;1256;106539;-76
2024/01/07 01:47:22;;;;;;;21.30;11.70;;;;;;;-3.41;69.42;100240.45;130903;1256;108653;-75
2024/01/07 01:50:28;;;;;;;28.70;14.60;;;;;;;-3.55;69.88;100242.06;130788;1256;108716;-75
2024/01/07 01:53:34;;;;;;;40.90;23.50;;;;;;;-3.61;70.20;100246.31;130974;1256;105420;-76
2024/01/07 01:56:41;;;;;;;23.10;13.00;;;;;;;-3.64;70.43;100246.42;130964;1257;107740;-75
2024/01/07 01:59:46;;;;;;;24.30;13.50;;;;;;;-3.73;70.36;100248.04;130886;1256;108528;-75
2024/01/07 02:02:52;;;;;;;21.10;11.70;;;;;;;-3.76;70.39;100245.04;130983;1264;106513;-75
2024/01/07 02:05:59;;;;;;;27.70;15.60;;;;;;;-3.77;70.41;100242.43;130954;1256;106740;-76
2024/01/07 02:09:05;;;;;;;24.90;12.80;;;;;;;-3.76;70.46;100238.95;130942;1256;108667;-75
2024/01/07 02:12:11;;;;;;;23.90;13.70;;;;;;;-3.83;70.24;100244.25;130969;1255;107636;-75
2024/01/07 02:15:17;;;;;;;26.90;15.60;;;;;;;-3.88;70.24;100245.18;130998;1261;107828;-74
2024/01/07 02:18:24;;;;;;;23.40;13.40;;;;;;;-3.93;70.34;100245.20;130850;1258;106489;-75
2024/01/07 02:21:33;;;;;;;20.40;11.50;;;;;;;-4.04;70.46;100248.93;130986;1254;108691;-75
2024/01/07 02:24:38;;;;;;;23.40;11.50;;;;;;;-4.15;70.52;100248.14;130797;1266;108665;-76
2024/01/07 02:27:44;;;;;;;22.20;11.50;;;;;;;-4.25;70.57;100251.48;130987;1255;107499;-76
2024/01/07 02:30:50;;;;;;;20.40;11.80;;;;;;;-4.30;70.72;100253.23;130912;1256;108511;-76
2024/01/07 02:33:56;;;;;;;21.50;11.20;;;;;;;-4.36;70.71;100252.92;130873;1256;108089;-75
2024/01/07 02:37:01;;;;;;;19.60;10.20;;;;;;;-4.37;70.80;100252.95;130956;1257;107547;-76
2024/01/07 02:40:10;;;;;;;17.00;9.60;;;;;;;-4.35;70.94;100251.85;130940;1256;106241;-76
2024/01/07 02:43:16;;;;;;;17.70;9.70;;;;;;;-4.35;70.79;100248.19;130982;1256;107919;-76
2024/01/07 02:46:25;;;;;;;17.30;8.70;;;;;;;-4.28;71.10;100251.77;130977;1256;108676;-75
2024/01/07 02:49:31;;;;;;;20.60;10.00;;;;;;;-4.26;71.06;100250.30;130953;1256;107450;-75
2024/01/07 02:52:36;;;;;;;17.90;9.00;;;;;;;-4.28;71.00;100247.44;130965;1257;106740;-75
2024/01/07 02:55:42;;;;;;;16.40;8.90;;;;;;;-4.34;70.89;100242.60;130976;1254;108477;-75
2024/01/07 02:58:48;;;;;;;16.10;8.60;;;;;;;-4.37;70.97;100243.92;130967;1256;106162;-75
2024/01/07 03:01:54;;;;;;;18.30;9.70;;;;;;;-4.38;71.01;100246.77;130996;1256;107846;-75
2024/01/07 03:05:01;;;;;;;18.10;8.70;;;;;;;-4.49;71.19;100249.77;130966;1261;108685;-74
2024/01/07 03:08:08;;;;;;;18.70;8.70;;;;;;;-4.59;71.33;100251.91;130993;1257;106710;-75
2024/01/07 03:11:14;;;;;;;15.10;8.00;;;;;;;-4.64;71.26;100254.33;131031;1257;107033;-76
2024/01/07 03:14:21;;;;;;;16.10;8.20;;;;;;;-4.67;71.30;100256.17;131011;1257;108704;-76
2024/01/07 03:17:26;;;;;;;16.70;7.90;;;;;;;-4.72;71.36;100259.66;130923;1256;106847;-76
2024/01/07 03:20:32;;;;;;;17.20;9.50;;;;;;;-4.82;71.59;100260.73;130959;1257;106685;-76
2024/01/07 03:23:38;;;;;;;16.30;7.80;;;;;;;-4.85;71.76;100255.46;130987;1255;108679;-75
2024/01/07 03:26:45;;;;;;;17.20;8.50;;;;;;;-4.95;71.93;100262.59;130974;1256;108474;-75
2024/01/07 03:29:51;;;;;;;15.20;8.50;;;;;;;-5.04;71.77;100262.02;130970;1265;108927;-75
2024/01/07 03:32:57;;;;;;;39.60;21.70;;;;;;;-5.04;71.80;100261.34;130972;1256;107244;-75
2024/01/07 03:36:07;;;;;;;33.80;16.00;;;;;;;-4.99;71.73;100261.32;130814;1264;194554;-76
2024/01/07 03:39:12;;;;;;;33.00;15.90;;;;;;;-4.96;72.13;100265.02;130995;1264;108192;-75
2024/01/07 03:42:19;;;;;;;17.90;9.40;;;;;;;-4.94;71.91;100266.01;130952;1257;107188;-76
2024/01/07 03:45:25;;;;;;;14.20;7.50;;;;;;;-4.89;72.17;100266.67;131028;1256;108556;-75
2024/01/07 03:48:31;;;;;;;17.20;8.80;;;;;;;-4.85;71.93;100262.89;131000;1257;106466;-75
2024/01/07 03:51:37;;;;;;;23.40;13.60;;;;;;;-4.84;71.80;100267.88;130990;1251;106794;-76
2024/01/07 03:54:42;;;;;;;15.70;8.60;;;;;;;-4.82;71.82;100268.52;130956;1257;107510;-75
2024/01/07 03:57:48;;;;;;;17.00;8.60;;;;;;;-4.77;71.78;100267.83;130971;1258;107201;-76
2024/01/07 04:00:54;;;;;;;26.40;14.90;;;;;;;-4.79;71.75;100263.73;131004;1256;108450;-76
2024/01/07 04:03:59;;;;;;;21.50;12.10;;;;;;;-4.80;71.74;100268.78;130976;1257;108041;-75
2024/01/07 04:07:06;;;;;;;24.50;13.60;;;;;;;-4.85;71.69;100269.67;131007;1257;107761;-76
2024/01/07 04:10:12;;;;;;;25.90;13.30;;;;;;;-4.93;71.65;100270.11;130712;1264;107662;-75
2024/01/07 04:13:18;;;;;;;21.90;11.50;;;;;;;-4.96;71.57;100276.28;130975;1256;106815;-76
2024/01/07 04:16:24;;;;;;;19.80;10.00;;;;;;;-4.98;71.85;100284.02;130938;1258;106485;-76
2024/01/07 04:19:30;;;;;;;20.80;12.00;;;;;;;-5.01;71.76;100289.16;130725;1257;106907;-76
2024/01/07 04:22:35;;;;;;;26.20;15.20;;;;;;;-5.17;71.87;100285.52;130949;1258;107576;-76
2024/01/07 04:25:42;;;;;;;23.80;11.50;;;;;;;-5.23;72.04;100285.04;130946;1265;107634;-75
2024/01/07 04:28:47;;;;;;;17.90;9.80;;;;;;;-5.28;72.02;100282.77;130980;1251;108656;-75
2024/01/07 04:31:53;;;;;;;24.20;13.80;;;;;;;-5.34;72.08;100283.52;131041;1257;106752;-75
2024/01/07 04:34:59;;;;;;;19.00;9.80;;;;;;;-5.37;72.07;100286.89;131206;1255;106603;-73
2024/01/07 04:38:05;;;;;;;20.90;11.30;;;;;;;-5.44;72.15;100287.31;130979;1256;108751;-75
2024/01/07 04:41:10;;;;;;;20.00;11.00;;;;;;;-5.45;72.22;100291.67;130925;1256;108469;-74
2024/01/07 04:44:16;;;;;;;17.60;9.60;;;;;;;-5.41;72.25;100299.85;130950;1263;108657;-76
2024/01/07 04:47:30;;;;;;;17.40;9.30;;;;;;;-5.36;72.17;100296.41;130959;1256;108637;-76
2024/01/07 04:50:36;;;;;;;15.60;8.50;;;;;;;-5.29;72.44;100297.91;131016;1257;108439;-76
2024/01/07 04:53:42;;;;;;;18.20;10.40;;;;;;;-5.22;72.35;100293.51;130956;1258;106415;-76
2024/01/07 04:56:48;;;;;;;15.50;8.70;;;;;;;-5.21;72.10;100293.65;130965;1251;108708;-75
2024/01/07 04:59:53;;;;;;;17.90;9.30;;;;;;;-5.25;72.34;100296.56;130990;1257;106358;-75
2024/01/07 05:02:59;;;;;;;17.90;10.00;;;;;;;-5.31;72.20;100304.73;130949;1255;105591;-76
2024/01/07 05:06:05;;;;;;;15.90;8.90;;;;;;;-5.36;72.22;100305.05;130956;1265;107653;-75
2024/01/07 05:09:11;;;;;;;15.00;8.70;;;;;;;-5.40;72.30;100302.95;130922;1258;107676;-76
2024/01/07 05:12:17;;;;;;;16.80;9.10;;;;;;;-5.46;72.13;100301.06;130953;1264;106619;-76
2024/01/07 05:15:23;;;;;;;18.70;10.90;;;;;;;-5.42;72.24;100302.85;130957;1257;106588;-76
2024/01/07 05:18:29;;;;;;;13.70;8.50;;;;;;;-5.40;72.03;100306.09;130959;1251;109152;-77
2024/01/07 05:21:34;;;;;;;17.10;9.80;;;;;;;-5.41;72.16;100313.22;130944;1257;108682;-76
2024/01/07 05:24:40;;;;;;;15.40;9.10;;;;;;;-5.40;72.08;100314.21;130974;1258;106176;-75
2024/01/07 05:27:46;;;;;;;15.60;8.80;;;;;;;-5.48;72.06;100315.18;130966;1251;108657;-76
2024/01/07 05:30:51;;;;;;;15.70;8.60;;;;;;;-5.53;72.09;100314.46;131008;1257;107433;-76
2024/01/07 05:33:58;;;;;;;15.90;9.40;;;;;;;-5.53;72.26;100314.96;130849;1251;106349;-75
2024/01/07 05:37:04;;;;;;;15.10;8.60;;;;;;;-5.52;72.26;100317.39;130936;1255;107640;-76
2024/01/07 05:40:12;;;;;;;17.20;9.20;;;;;;;-5.53;72.13;100320.69;130953;1256;106563;-76
2024/01/07 05:43:18;;;;;;;17.90;9.20;;;;;;;-5.56;72.50;100324.61;130983;1257;105660;-76
2024/01/07 05:46:23;;;;;;;16.60;8.70;;;;;;;-5.63;72.21;100324.34;131035;1257;106513;-76
2024/01/07 05:49:29;;;;;;;15.30;8.90;;;;;;;-5.69;72.09;100320.00;130950;1263;106848;-76
2024/01/07 05:52:35;;;;;;;16.00;8.70;;;;;;;-5.67;72.33;100318.05;130943;1255;108393;-76
2024/01/07 05:55:41;;;;;;;18.30;9.60;;;;;;;-5.67;72.18;100321.69;130922;1257;106627;-77
2024/01/07 05:58:46;;;;;;;15.10;8.30;;;;;;;-5.68;72.43;100315.83;130907;1256;107650;-76
2024/01/07 06:01:52;;;;;;;15.90;8.50;;;;;;;-5.62;72.37;100317.36;130954;1255;106592;-74
2024/01/07 06:04:58;;;;;;;13.60;7.50;;;;;;;-5.55;72.31;100314.53;130974;1251;108052;-76
2024/01/07 06:08:04;;;;;;;16.90;9.10;;;;;;;-5.51;72.16;100317.35;130981;1255;107806;-76
2024/01/07 06:11:12;;;;;;;16.70;8.80;;;;;;;-5.43;72.29;100322.45;130923;1257;106369;-77
2024/01/07 06:14:18;;;;;;;15.70;8.50;;;;;;;-5.46;72.03;100324.32;131023;1251;107595;-77
2024/01/07 06:17:24;;;;;;;15.20;8.50;;;;;;;-5.51;72.12;100323.75;130787;1267;107743;-80
2024/01/07 06:20:29;;;;;;;15.10;8.10;;;;;;;-5.54;72.21;100325.76;130936;1254;107615;-78
2024/01/07 06:23:36;;;;;;;15.30;8.40;;;;;;;-5.54;72.05;100327.86;130965;1251;106638;-77
2024/01/07 06:26:41;;;;;;;16.60;8.70;;;;;;;-5.54;72.24;100331.48;130960;1255;108460;-77
2024/01/07 06:29:47;;;;;;;17.10;8.80;;;;;;;-5.58;72.09;100336.83;131021;1255;108671;-79
2024/01/07 06:32:53;;;;;;;14.90;8.80;;;;;;;-5.57;72.16;100343.89;130924;1258;107839;-78
2024/01/07 06:35:59;;;;;;;23.10;14.60;;;;;;;-5.61;72.08;100347.81;130963;1251;108199;-79
2024/01/07 06:39:05;;;;;;;17.30;10.30;;;;;;;-5.65;72.31;100353.30;130957;1251;108582;-79
2024/01/07 06:42:10;;;;;;;17.20;9.60;;;;;;;-5.60;72.12;100357.51;130933;1257;106677;-78
2024/01/07 06:45:17;;;;;;;23.40;14.10;;;;;;;-5.53;72.11;100358.31;130970;1265;105627;-79
2024/01/07 06:48:23;;;;;;;20.50;10.70;;;;;;;-5.51;72.06;100362.23;130973;1257;107037;-78
2024/01/07 06:51:28;;;;;;;21.50;11.80;;;;;;;-5.52;72.19;100364.19;130942;1251;107580;-79
2024/01/07 06:54:34;;;;;;;22.80;12.50;;;;;;;-5.56;72.14;100365.70;130926;1257;107658;-78
2024/01/07 06:57:39;;;;;;;26.70;15.50;;;;;;;-5.61;72.24;100366.73;130939;1265;108501;-78
2024/01/07 07:00:45;;;;;;;23.00;11.40;;;;;;;-5.68;72.24;100367.28;130945;1257;108704;-78
2024/01/07 07:03:51;;;;;;;23.30;13.00;;;;;;;-5.69;72.37;100361.95;130951;1258;108150;-78
2024/01/07 07:06:59;;;;;;;30.80;15.20;;;;;;;-5.71;72.26;100370.14;130922;1257;107665;-79
2024/01/07 07:10:04;;;;;;;28.00;15.40;;;;;;;-5.72;72.29;100370.52;130897;1257;107601;-78
2024/01/07 07:13:11;;;;;;;31.00;16.90;;;;;;;-5.66;72.29;100371.55;130920;1255;107548;-80
2024/01/07 07:16:17;;;;;;;21.40;11.00;;;;;;;-5.62;72.26;100369.34;131020;1256;108521;-78
2024/01/07 07:19:22;;;;;;;43.50;20.90;;;;;;;-5.53;72.05;100376.86;130956;1256;107511;-79
2024/01/07 07:22:28;;;;;;;25.20;13.00;;;;;;;-5.41;72.19;100388.11;131106;1254;107307;-77
2024/01/07 07:25:34;;;;;;;24.80;13.90;;;;;;;-5.39;71.94;100386.11;131201;1257;106932;-77
2024/01/07 07:28:39;;;;;;;33.90;16.20;;;;;;;-5.36;72.09;100386.56;131367;1251;107107;-77
2024/01/07 07:31:46;;;;;;;17.60;9.10;;;;;;;-5.29;71.96;100385.29;132987;1251;106533;-79
2024/01/07 07:34:51;;;;;;;19.20;10.30;;;;;;;-5.35;71.85;100386.50;133400;1251;105531;-79
2024/01/07 07:37:57;;;;;;;19.20;10.40;;;;;;;-5.32;71.90;100386.95;132695;1251;107175;-77
2024/01/07 07:41:04;;;;;;;21.40;12.00;;;;;;;-5.36;71.83;100395.41;130991;1251;106505;-77
2024/01/07 07:44:10;;;;;;;23.80;13.20;;;;;;;-5.38;71.98;100397.20;131100;1255;107699;-77
2024/01/07 07:47:16;;;;;;;20.50;10.40;;;;;;;-5.38;72.00;100398.23;130987;1261;107739;-78
2024/01/07 07:50:22;;;;;;;22.10;11.70;;;;;;;-5.32;72.23;100399.94;130913;1251;107652;-76
2024/01/07 07:53:28;;;;;;;19.10;10.30;;;;;;;-5.24;72.20;100406.30;130962;1267;106810;-78
2024/01/07 07:56:35;;;;;;;24.20;13.60;;;;;;;-5.24;71.97;100411.66;130941;1257;108504;-77
2024/01/07 07:59:41;;;;;;;19.50;11.50;;;;;;;-5.16;72.20;100406.91;130947;1258;106603;-75
2024/01/07 08:02:47;;;;;;;17.50;10.00;;;;;;;-5.05;71.88;100408.45;130960;1251;108482;-77
2024/01/07 08:05:53;;;;;;;18.70;10.00;;;;;;;-5.09;71.76;100409.98;130976;1251;108623;-78
2024/01/07 08:08:58;;;;;;;18.60;10.30;;;;;;;-5.08;71.84;100417.90;130941;1257;109160;-77
2024/01/07 08:12:05;;;;;;;20.10;10.30;;;;;;;-5.08;71.83;100420.16;130932;1258;107207;-78
2024/01/07 08:15:12;;;;;;;21.20;11.00;;;;;;;-5.08;71.82;100422.77;131008;1251;106216;-78
2024/01/07 08:18:18;;;;;;;20.00;10.40;;;;;;;-5.10;71.79;100422.30;130976;1257;106346;-77
2024/01/07 08:21:24;;;;;;;23.50;11.20;;;;;;;-5.13;71.59;100423.79;131002;1265;108816;-77
2024/01/07 08:24:30;;;;;;;21.10;10.70;;;;;;;-5.15;71.89;100423.69;131052;1252;108489;-78
2024/01/07 08:27:38;;;;;;;19.90;11.40;;;;;;;-5.13;71.68;100429.02;130922;1257;108661;-78
2024/01/07 08:30:44;;;;;;;18.00;9.80;;;;;;;-5.09;71.92;100424.70;130937;1252;106111;-77
2024/01/07 08:33:50;;;;;;;21.80;10.70;;;;;;;-5.00;71.81;100427.03;131045;1252;105405;-78
2024/01/07 08:36:56;;;;;;;19.30;9.50;;;;;;;-4.99;71.46;100435.33;130941;1256;106795;-76
2024/01/07 08:40:01;;;;;;;18.90;10.00;;;;;;;-4.99;71.56;100437.05;130940;1256;106127;-75
2024/01/07 08:43:08;;;;;;;20.30;11.20;;;;;;;-5.02;71.41;100439.91;130918;1256;108652;-77
2024/01/07 08:46:14;;;;;;;20.10;10.20;;;;;;;-5.07;71.66;100441.66;130965;1256;107161;-74
2024/01/07 08:49:20;;;;;;;19.70;10.30;;;;;;;-5.07;71.50;100438.35;130999;1264;105354;-74
2024/01/07 08:52:26;;;;;;;16.70;9.50;;;;;;;-5.00;71.60;100436.91;130990;1251;107711;-73
2024/01/07 08:55:32;;;;;;;20.40;10.10;;;;;;;-4.98;71.74;100436.17;130941;1256;106475;-74
2024/01/07 08:58:38;;;;;;;25.40;11.50;;;;;;;-4.89;71.56;100438.63;130928;1254;108574;-74
2024/01/07 09:01:48;;;;;;;18.30;10.40;;;;;;;-4.87;71.32;100438.77;130952;1256;107551;-76
2024/01/07 09:04:59;;;;;;;18.90;10.60;;;;;;;-4.83;71.37;100440.88;130733;1257;107780;-75
2024/01/07 09:08:11;;;;;;;20.90;10.70;;;;;;;-4.85;71.23;100437.62;130768;1254;108548;-75
2024/01/07 09:11:19;;;;;;;16.40;9.30;;;;;;;-4.84;71.50;100438.66;130664;1254;108108;-74
2024/01/07 09:14:26;;;;;;;16.90;9.90;;;;;;;-4.85;71.14;100437.29;130930;1253;106415;-73
2024/01/07 09:17:32;;;;;;;17.40;9.40;;;;;;;-4.83;71.01;100431.14;130700;1257;106596;-74
2024/01/07 09:20:37;;;;;;;17.90;9.70;;;;;;;-4.81;71.26;100434.02;130674;1252;107429;-74
2024/01/07 09:23:44;;;;;;;19.70;10.50;;;;;;;-4.74;71.41;100439.70;131022;1255;108558;-74
2024/01/07 09:26:51;;;;;;;20.40;11.50;;;;;;;-4.69;70.93;100443.70;131025;1255;107496;-74
2024/01/07 09:29:57;;;;;;;18.00;9.60;;;;;;;-4.71;71.16;100443.77;130808;1255;107569;-75
2024/01/07 09:33:03;;;;;;;23.70;10.40;;;;;;;-4.72;70.73;100444.83;130673;1257;108235;-75
2024/01/07 09:36:11;;;;;;;25.20;12.70;;;;;;;-4.72;70.99;100445.00;130951;1255;109001;-75
2024/01/07 09:39:17;;;;;;;23.90;11.90;;;;;;;-4.70;70.96;100440.09;130890;1257;108686;-74
2024/01/07 09:42:23;;;;;;;23.20;11.50;;;;;;;-4.68;70.80;100443.14;130956;1254;108594;-76
2024/01/07 09:45:31;;;;;;;26.40;11.30;;;;;;;-4.70;70.61;100445.15;130957;1255;108597;-73
2024/01/07 09:48:37;;;;;;;20.70;10.40;;;;;;;-4.77;70.76;100437.88;130942;1256;106576;-74
2024/01/07 09:51:46;;;;;;;18.50;10.00;;;;;;;-4.75;70.71;100432.60;130639;1253;106534;-74
2024/01/07 09:54:59;;;;;;;18.90;10.10;;;;;;;-4.74;70.71;100434.46;130611;1253;106542;-74
2024/01/07 09:58:06;;;;;;;18.80;10.70;;;;;;;-4.74;70.71;100423.57;131052;1256;108660;-73
2024/01/07 10:01:12;;;;;;;21.20;9.70;;;;;;;-4.73;70.69;100429.05;130910;1254;107687;-73
2024/01/07 10:04:19;;;;;;;20.10;10.50;;;;;;;-4.77;70.75;100431.80;130940;1255;108146;-72
2024/01/07 10:07:25;;;;;;;20.60;10.60;;;;;;;-4.79;70.74;100434.46;130901;1254;106563;-74
2024/01/07 10:10:31;;;;;;;18.80;9.80;;;;;;;-4.71;71.02;100435.59;130964;1256;106272;-73
2024/01/07 10:13:37;;;;;;;19.10;10.70;;;;;;;-4.62;70.77;100434.77;130905;1251;109333;-73
2024/01/07 10:16:43;;;;;;;19.30;10.20;;;;;;;-4.61;70.56;100429.88;131038;1251;106650;-73
2024/01/07 10:19:48;;;;;;;17.30;9.80;;;;;;;-4.60;70.74;100431.59;130982;1251;106270;-73
2024/01/07 10:22:54;;;;;;;19.10;10.00;;;;;;;-4.65;70.52;100429.52;131133;1256;107758;-72
2024/01/07 10:26:02;;;;;;;18.70;10.30;;;;;;;-4.61;71.02;100434.56;130953;1251;107255;-74
2024/01/07 10:29:08;;;;;;;19.80;9.90;;;;;;;-4.60;70.26;100434.52;130988;1255;107347;-73
2024/01/07 10:32:14;;;;;;;17.90;10.10;;;;;;;-4.70;70.24;100436.98;130938;1257;108670;-74
2024/01/07 10:35:23;;;;;;;18.00;10.00;;;;;;;-4.68;70.60;100432.39;130966;1256;105524;-73
2024/01/07 10:38:31;;;;;;;18.70;9.60;;;;;;;-4.72;70.07;100438.08;130979;1251;106372;-73
2024/01/07 10:41:39;;;;;;;17.90;9.90;;;;;;;-4.80;70.59;100432.08;130962;1251;108471;-73
2024/01/07 10:44:45;;;;;;;18.20;9.80;;;;;;;-4.77;70.47;100440.30;130955;1256;108664;-72
2024/01/07 10:47:55;;;;;;;23.80;14.70;;;;;;;-4.82;70.47;100440.49;131018;1256;107354;-73
2024/01/07 10:51:01;;;;;;;34.80;19.70;;;;;;;-4.83;70.67;100443.29;130967;1257;106943;-72
2024/01/07 10:54:08;;;;;;;21.50;10.90;;;;;;;-4.75;70.73;100442.32;131147;1254;108696;-73
2024/01/07 10:57:25;;;;;;;132.60;72.30;;;;;;;-4.68;70.46;100448.17;131142;1256;107500;-74
2024/01/07 11:00:31;;;;;;;23.30;13.80;;;;;;;-4.66;70.38;100445.50;130991;1256;107562;-74
2024/01/07 11:03:45;;;;;;;15.00;9.30;;;;;;;-4.59;70.13;100444.91;131205;1256;108625;-73
2024/01/07 11:06:56;;;;;;;20.40;10.80;;;;;;;-4.54;70.23;100444.58;131057;1254;108652;-73
2024/01/07 11:10:10;;;;;;;23.70;13.50;;;;;;;-4.46;70.05;100441.01;130937;1256;108511;-73
2024/01/07 11:13:34;;;;;;;21.30;11.20;;;;;;;-4.39;70.36;100440.08;130976;1255;108692;-72
2024/01/07 11:16:47;;;;;;;27.90;16.60;;;;;;;-4.37;69.96;100438.24;130984;1254;106606;-72
2024/01/07 11:19:56;;;;;;;17.40;10.60;;;;;;;-4.38;69.89;100437.08;131040;1251;107368;-73
2024/01/07 11:23:32;;;;;;;18.20;11.10;;;;;;;-4.43;69.95;100437.23;130951;1251;106054;-72
2024/01/07 11:26:40;;;;;;;22.50;13.60;;;;;;;-4.42;69.93;100436.51;131167;1255;107539;-73
2024/01/07 11:29:56;;;;;;;22.50;11.00;;;;;;;-4.47;69.63;100434.26;131465;1252;106359;-72
2024/01/07 11:33:02;;;;;;;23.20;12.60;;;;;;;-4.52;70.14;100434.27;131205;1256;106075;-73
2024/01/07 11:36:11;;;;;;;22.90;11.70;;;;;;;-4.53;69.94;100433.26;131037;1251;108525;-74
2024/01/07 11:39:17;;;;;;;22.10;10.80;;;;;;;-4.58;70.24;100434.48;131011;1251;106827;-73
2024/01/07 11:42:23;;;;;;;21.70;10.80;;;;;;;-4.56;69.99;100440.13;130988;1256;106518;-73
2024/01/07 11:45:29;;;;;;;20.60;11.10;;;;;;;-4.58;70.04;100440.19;130927;1256;108651;-73
2024/01/07 11:48:35;;;;;;;18.00;10.10;;;;;;;-4.53;69.98;100435.34;130903;1253;106336;-74
2024/01/07 11:51:40;;;;;;;19.00;10.40;;;;;;;-4.49;69.65;100434.86;130924;1253;107841;-72
2024/01/07 11:54:47;;;;;;;15.30;9.60;;;;;;;-4.51;69.98;100433.02;130902;1256;108621;-73
2024/01/07 11:57:53;;;;;;;16.50;9.70;;;;;;;-4.46;69.69;100433.89;130918;1253;107614;-73
2024/01/07 12:00:58;;;;;;;19.20;10.40;;;;;;;-4.53;69.59;100427.52;131265;1256;107013;-74
2024/01/07 12:04:04;;;;;;;20.10;11.30;;;;;;;-4.54;69.72;100428.27;131091;1256;106330;-74
2024/01/07 12:07:14;;;;;;;18.20;10.70;;;;;;;-4.53;69.89;100424.39;131061;1255;108335;-74
2024/01/07 12:10:20;;;;;;;22.30;11.10;;;;;;;-4.54;69.74;100429.47;130972;1257;108541;-73
2024/01/07 12:13:27;;;;;;;22.30;11.40;;;;;;;-4.69;69.44;100428.07;130917;1256;106972;-74
2024/01/07 12:16:33;;;;;;;21.90;11.20;;;;;;;-4.77;69.90;100431.63;130927;1256;107448;-73
2024/01/07 12:19:40;;;;;;;20.90;11.30;;;;;;;-4.84;69.88;100430.83;131044;1253;106421;-72
2024/01/07 12:22:46;;;;;;;20.60;11.10;;;;;;;-4.88;69.84;100435.65;130729;1254;107592;-72
2024/01/07 12:25:53;;;;;;;22.60;12.10;;;;;;;-4.90;70.14;100435.89;130846;1255;107923;-73
2024/01/07 12:29:03;;;;;;;19.40;11.10;;;;;;;-4.96;70.12;100441.63;130757;1256;108636;-73
2024/01/07 12:32:10;;;;;;;22.40;11.70;;;;;;;-4.99;70.06;100440.69;130981;1253;108810;-73
2024/01/07 12:35:17;;;;;;;22.60;11.80;;;;;;;-5.00;70.18;100444.52;130909;1256;105249;-73
2024/01/07 12:38:27;;;;;;;22.80;12.40;;;;;;;-5.03;70.14;100449.83;130898;1253;107651;-74
2024/01/07 12:41:32;;;;;;;19.10;10.40;;;;;;;-5.01;69.97;100452.73;130884;1255;107165;-74
2024/01/07 12:44:39;;;;;;;22.50;12.00;;;;;;;-5.05;69.99;100451.82;130949;1251;108181;-72
2024/01/07 12:47:45;;;;;;;24.10;13.20;;;;;;;-5.17;70.00;100453.60;130945;1255;106126;-74
2024/01/07 12:50:51;;;;;;;26.80;12.40;;;;;;;-5.27;70.30;100458.42;130960;1256;107511;-73
2024/01/07 12:53:59;;;;;;;22.70;11.10;;;;;;;-5.25;70.48;100459.04;130903;1253;108653;-73
2024/01/07 12:57:06;;;;;;;21.90;11.40;;;;;;;-5.16;70.37;100458.55;130924;1251;108669;-73
2024/01/07 13:00:13;;;;;;;25.10;12.80;;;;;;;-5.08;70.34;100460.95;130921;1251;106963;-72
2024/01/07 13:03:19;;;;;;;21.40;11.20;;;;;;;-5.04;70.35;100458.02;130971;1253;106347;-72
2024/01/07 13:06:25;;;;;;;21.40;10.60;;;;;;;-5.00;70.10;100462.21;131017;1251;106868;-74
2024/01/07 13:09:31;;;;;;;18.90;10.40;;;;;;;-4.96;70.29;100462.29;130962;1253;107721;-73
2024/01/07 13:12:37;;;;;;;21.70;11.30;;;;;;;-4.83;70.24;100466.71;131008;1256;107766;-73
2024/01/07 13:15:42;;;;;;;27.40;12.80;;;;;;;-4.79;69.85;100472.31;131003;1255;107807;-73
2024/01/07 13:18:48;;;;;;;25.30;13.20;;;;;;;-4.84;69.31;100474.91;130975;1256;106471;-74
2024/01/07 13:21:58;;;;;;;22.30;11.70;;;;;;;-4.94;69.74;100475.05;130975;1253;108615;-73
2024/01/07 13:25:04;;;;;;;22.00;11.80;;;;;;;-4.95;69.73;100479.77;130993;1251;106587;-73
2024/01/07 13:28:10;;;;;;;24.30;11.80;;;;;;;-4.96;69.75;100489.37;131004;1251;106534;-72
2024/01/07 13:31:16;;;;;;;24.10;12.80;;;;;;;-4.97;69.95;100485.22;131145;1252;107698;-73
2024/01/07 13:34:22;;;;;;;22.60;11.80;;;;;;;-4.99;69.75;100487.36;131088;1253;107697;-73
2024/01/07 13:37:27;;;;;;;23.50;11.70;;;;;;;-5.10;69.49;100485.29;131061;1251;107701;-73
2024/01/07 13:40:33;;;;;;;22.50;11.60;;;;;;;-5.15;69.85;100491.67;130939;1255;107907;-74
2024/01/07 13:43:40;;;;;;;25.00;13.70;;;;;;;-5.15;69.85;100494.29;130972;1251;106299;-75
2024/01/07 13:46:48;;;;;;;35.00;17.70;;;;;;;-5.19;69.51;100490.94;131126;1253;107943;-73
2024/01/07 13:49:53;;;;;;;31.10;13.50;;;;;;;-5.33;69.70;100494.84;130983;1263;109280;-74
2024/01/07 13:52:59;;;;;;;26.50;13.30;;;;;;;-5.42;69.64;100496.30;131072;1256;106445;-73